Terminal Aerodrome Forecast
Issued by NWS Brownsville, TX

Home | Current Version | Previous Version | Text Only | Print | Product List | Glossary On
Versions: 1 2 3 4 5 6 7 8 9 10 11 12 13 14 15
000
FTUS44 KBRO 281720
TAFBRO
TAF
KBRO 281720Z 2818/2918 17014KT P6SM SKC
     FM290000 14011KT P6SM FEW250
     FM290300 15007KT P6SM SCT250
     FM290600 15007KT 2SM BR SCT250
     FM290900 15006KT 1/4SM FG SCT250
     FM291500 16008KT P6SM SCT250=

USA.gov is the U.S. government's official web portal to all federal, state and local government web resources and services.